createdAt,value
2022-10-22T00:00:03.286Z,100884.09
2022-10-22T00:02:55.296Z,100873.53
2022-10-22T00:05:25.334Z,100873.56
2022-10-22T00:07:55.686Z,100869.16
2022-10-22T00:10:27.044Z,100875.31
2022-10-22T00:12:57.547Z,100870.94
2022-10-22T00:15:27.687Z,100871.81
2022-10-22T00:17:57.896Z,100867.41
2022-10-22T00:20:27.787Z,100870.06
2022-10-22T00:22:58.109Z,100872.69
2022-10-22T00:25:29.629Z,100863.88
2022-10-22T00:28:02.317Z,100869.19
2022-10-22T00:30:32.317Z,100863.00
2022-10-22T00:33:02.516Z,100860.38
2022-10-22T00:35:33.977Z,100858.63
2022-10-22T00:38:04.270Z,100862.16
2022-10-22T00:40:35.916Z,100854.22
2022-10-22T00:43:06.317Z,100841.03
2022-10-22T00:45:36.267Z,100838.41
2022-10-22T00:48:10.018Z,100847.22
2022-10-22T00:50:43.399Z,100837.50
2022-10-22T00:53:16.635Z,100849.81
2022-10-22T00:55:50.581Z,100839.25
2022-10-22T00:58:22.713Z,100830.47
2022-10-22T01:00:52.951Z,100831.38
2022-10-22T01:03:23.504Z,100827.84
2022-10-22T01:05:58.266Z,100826.97
2022-10-22T01:08:38.529Z,100824.28
2022-10-22T01:11:20.036Z,100824.28
2022-10-22T01:13:55.504Z,100815.53
2022-10-22T01:16:35.186Z,100807.56
2022-10-22T01:19:27.244Z,100800.53
2022-10-22T01:22:03.199Z,100806.72
2022-10-22T01:24:43.764Z,100794.41
2022-10-22T01:27:25.805Z,100798.78
2022-10-22T01:30:00.907Z,100799.66
2022-10-22T01:32:34.123Z,100798.78
2022-10-22T01:35:08.554Z,100794.38
2022-10-22T01:37:44.525Z,100788.22
2022-10-22T01:40:17.774Z,100797.03
2022-10-22T01:43:00.569Z,100793.50
2022-10-22T01:45:35.345Z,100787.34
2022-10-22T01:48:14.664Z,100791.75
2022-10-22T01:51:09.456Z,100785.59
2022-10-22T01:53:47.655Z,100782.94
2022-10-22T01:56:31.725Z,100784.72
2022-10-22T01:59:10.034Z,100773.28
2022-10-22T02:01:51.236Z,100782.97
2022-10-22T02:04:24.845Z,100784.72
2022-10-22T02:06:58.227Z,100795.28
2022-10-22T02:09:30.894Z,100783.81
2022-10-22T02:12:03.117Z,100782.94
2022-10-22T02:14:35.736Z,100779.41
2022-10-22T02:17:12.077Z,100782.94
2022-10-22T02:19:48.915Z,100781.19
2022-10-22T02:22:19.594Z,100780.31
2022-10-22T02:24:50.614Z,100770.59
2022-10-22T02:27:27.157Z,100775.03
2022-10-22T02:30:03.227Z,100768.88
2022-10-22T02:32:41.675Z,100774.13
2022-10-22T02:35:15.344Z,100789.09
2022-10-22T02:37:45.904Z,100790.88
2022-10-22T02:40:16.586Z,100790.88
2022-10-22T02:42:49.004Z,100782.06
2022-10-22T02:45:20.084Z,100786.47
2022-10-22T02:47:52.028Z,100782.06
2022-10-22T02:50:21.904Z,100775.03
2022-10-22T02:52:52.044Z,100775.91
2022-10-22T02:55:21.967Z,100775.03
2022-10-22T02:57:52.274Z,100772.38
2022-10-22T03:00:22.214Z,100772.38
2022-10-22T03:02:54.147Z,100776.75
2022-10-22T03:05:24.045Z,100779.41
2022-10-22T03:07:54.134Z,100771.47
2022-10-22T03:10:23.984Z,100770.59
2022-10-22T03:12:54.236Z,100780.28
2022-10-22T03:15:24.221Z,100783.78
2022-10-22T03:17:56.073Z,100787.34
2022-10-22T03:20:25.643Z,100781.19
2022-10-22T03:22:57.291Z,100776.78
2022-10-22T03:25:28.472Z,100775.03
2022-10-22T03:28:03.090Z,100769.72
2022-10-22T03:30:33.532Z,100773.25
2022-10-22T03:33:05.392Z,100789.97
2022-10-22T03:35:40.010Z,100778.53
2022-10-22T03:38:10.250Z,100781.19
2022-10-22T03:40:40.530Z,100784.72
2022-10-22T03:43:10.980Z,100784.69
2022-10-22T03:45:40.873Z,100790.84
2022-10-22T03:48:12.700Z,100791.72
2022-10-22T03:50:42.296Z,100797.00
2022-10-22T03:53:12.750Z,100786.44
2022-10-22T03:55:43.590Z,100782.06
2022-10-22T03:58:13.870Z,100789.97
2022-10-22T04:00:43.914Z,100786.44
2022-10-22T04:03:15.661Z,100795.25
2022-10-22T04:05:45.754Z,100795.28
2022-10-22T04:08:15.910Z,100792.63
2022-10-22T04:10:52.530Z,100790.00
2022-10-22T04:13:22.790Z,100777.66
2022-10-22T04:15:52.901Z,100782.06
2022-10-22T04:18:25.841Z,100784.69
2022-10-22T04:20:55.810Z,100768.88
2022-10-22T04:23:25.980Z,100760.91
2022-10-22T04:26:00.510Z,100753.00
2022-10-22T04:28:30.861Z,100766.19
2022-10-22T04:31:00.980Z,100772.38
2022-10-22T04:33:32.711Z,100779.41
2022-10-22T04:36:03.320Z,100782.94
2022-10-22T04:38:33.520Z,100782.91
2022-10-22T04:41:11.782Z,100781.16
2022-10-22T04:43:42.240Z,100775.00
2022-10-22T04:46:13.420Z,100775.00
2022-10-22T04:48:46.080Z,100780.25
2022-10-22T04:51:17.951Z,100780.25
2022-10-22T04:53:48.661Z,100764.44
2022-10-22T04:56:21.441Z,100763.53
2022-10-22T04:58:54.592Z,100760.94
2022-10-22T05:01:26.578Z,100771.47
2022-10-22T05:03:59.802Z,100774.97
2022-10-22T05:06:30.391Z,100760.03
2022-10-22T05:09:02.898Z,100760.03
2022-10-22T05:11:35.318Z,100748.59
2022-10-22T05:14:08.109Z,100745.06
2022-10-22T05:16:38.868Z,100742.44
2022-10-22T05:19:10.879Z,100742.44
2022-10-22T05:21:40.411Z,100740.69
2022-10-22T05:24:10.986Z,100748.56
2022-10-22T05:26:40.982Z,100743.31
2022-10-22T05:29:11.461Z,100736.28
2022-10-22T05:31:41.871Z,100722.19
2022-10-22T05:34:13.861Z,100728.34
2022-10-22T05:36:43.659Z,100742.41
2022-10-22T05:39:13.954Z,100762.63
2022-10-22T05:41:45.350Z,100760.88
2022-10-22T05:44:16.270Z,100741.50
2022-10-22T05:46:46.401Z,100746.78
2022-10-22T05:49:18.350Z,100770.53
2022-10-22T05:51:47.970Z,100788.09
2022-10-22T05:54:20.440Z,100796.91
2022-10-22T05:56:51.041Z,100780.19
2022-10-22T05:59:21.635Z,100784.63
2022-10-22T06:01:52.024Z,100774.94
2022-10-22T06:04:24.106Z,100778.47
2022-10-22T06:06:55.768Z,100778.47
2022-10-22T06:09:31.831Z,100779.38
2022-10-22T06:12:03.115Z,100782.00
2022-10-22T06:14:34.027Z,100784.69
2022-10-22T06:17:05.187Z,100785.56
2022-10-22T06:19:36.809Z,100786.44
2022-10-22T06:22:07.086Z,100796.16
2022-10-22T06:24:40.424Z,100793.50
2022-10-22T06:27:13.009Z,100798.78
2022-10-22T06:29:43.307Z,100783.84
2022-10-22T06:32:13.634Z,100795.28
2022-10-22T06:34:46.565Z,100791.75
2022-10-22T06:37:16.877Z,100791.78
2022-10-22T06:39:47.255Z,100795.28
2022-10-22T06:42:17.717Z,100794.41
2022-10-22T06:44:51.712Z,100794.41
2022-10-22T06:47:21.875Z,100796.16
2022-10-22T06:49:53.625Z,100793.53
2022-10-22T06:52:23.345Z,100789.97
2022-10-22T06:54:53.766Z,100783.84
2022-10-22T06:57:24.305Z,100782.94
2022-10-22T06:59:54.566Z,100781.19
2022-10-22T07:02:24.523Z,100784.72
2022-10-22T07:04:56.433Z,100800.56
2022-10-22T07:07:26.284Z,100797.91
2022-10-22T07:09:56.763Z,100808.50
2022-10-22T07:12:27.243Z,100812.00
2022-10-22T07:14:57.773Z,100805.84
2022-10-22T07:17:27.772Z,100803.19
2022-10-22T07:19:59.603Z,100803.19
2022-10-22T07:22:29.183Z,100812.88
2022-10-22T07:25:05.163Z,100807.59
2022-10-22T07:27:38.098Z,100813.78
2022-10-22T07:30:09.963Z,100808.47
2022-10-22T07:32:40.425Z,100814.63
2022-10-22T07:35:12.814Z,100810.25
2022-10-22T07:37:43.250Z,100819.03
2022-10-22T07:40:14.873Z,100818.13
2022-10-22T07:42:45.335Z,100823.44
2022-10-22T07:45:16.004Z,100819.91
2022-10-22T07:47:46.216Z,100825.19
2022-10-22T07:50:18.654Z,100827.81
2022-10-22T07:52:49.073Z,100820.75
2022-10-22T07:55:19.553Z,100808.41
2022-10-22T07:57:49.905Z,100808.41
2022-10-22T08:00:23.217Z,100804.88
2022-10-22T08:02:56.224Z,100801.31
2022-10-22T08:05:28.505Z,100800.41
2022-10-22T08:07:58.835Z,100796.88
2022-10-22T08:10:29.962Z,100808.34
2022-10-22T08:13:00.296Z,100809.19
2022-10-22T08:15:31.671Z,100806.56
2022-10-22T08:18:02.149Z,100798.59
2022-10-22T08:20:34.466Z,100801.22
2022-10-22T08:23:04.885Z,100801.19
2022-10-22T08:25:36.186Z,100806.47
2022-10-22T08:28:06.715Z,100799.41
2022-10-22T08:30:39.053Z,100802.94
2022-10-22T08:33:09.187Z,100802.00
2022-10-22T08:35:40.973Z,100802.91
2022-10-22T08:38:11.093Z,100806.41
2022-10-22T08:40:42.905Z,100806.38
2022-10-22T08:43:31.452Z,100806.38
2022-10-22T08:46:17.813Z,100816.94
2022-10-22T08:48:51.453Z,100808.09
2022-10-22T08:51:26.534Z,100808.97
2022-10-22T08:54:19.027Z,100799.25
2022-10-22T08:57:01.945Z,100806.28
2022-10-22T08:59:40.743Z,100796.50
2022-10-22T09:02:24.499Z,100799.09
2022-10-22T09:05:03.894Z,100799.09
2022-10-22T09:07:49.502Z,100803.47
2022-10-22T09:10:26.561Z,100805.13
2022-10-22T09:12:58.985Z,100802.44
2022-10-22T09:15:31.884Z,100817.44
2022-10-22T09:18:15.962Z,100818.25
2022-10-22T09:20:52.170Z,100828.78
2022-10-22T09:23:35.183Z,100830.63
2022-10-22T09:26:08.372Z,100823.56
2022-10-22T09:28:39.491Z,100822.63
2022-10-22T09:31:13.900Z,100835.78
2022-10-22T09:33:45.930Z,100834.00
2022-10-22T09:36:20.602Z,100833.94
2022-10-22T09:38:54.303Z,100832.94
2022-10-22T09:41:31.078Z,100835.47
2022-10-22T09:44:02.301Z,100830.97
2022-10-22T09:46:44.246Z,100836.25
2022-10-22T09:49:18.510Z,100835.38
2022-10-22T09:51:54.930Z,100844.16
2022-10-22T09:54:39.942Z,100838.84
2022-10-22T09:57:18.272Z,100831.72
2022-10-22T09:59:54.519Z,100830.78
2022-10-22T10:02:43.075Z,100831.59
2022-10-22T10:05:22.469Z,100821.78
2022-10-22T10:07:52.701Z,100816.38
2022-10-22T10:10:43.743Z,100818.06
2022-10-22T10:13:37.074Z,100815.28
2022-10-22T10:16:15.172Z,100813.50
2022-10-22T10:19:09.849Z,100816.88
2022-10-22T10:21:49.754Z,100810.78
2022-10-22T10:24:30.641Z,100816.81
2022-10-22T10:27:11.082Z,100807.06
2022-10-22T10:29:51.431Z,100805.19
2022-10-22T10:32:48.489Z,100811.31
2022-10-22T10:35:25.661Z,100817.59
2022-10-22T10:38:08.190Z,100814.81
2022-10-22T10:40:46.771Z,100818.16
2022-10-22T10:43:24.078Z,100820.66
2022-10-22T10:46:04.779Z,100818.78
2022-10-22T10:48:58.010Z,100813.50
2022-10-22T10:51:48.000Z,100812.72
2022-10-22T10:54:48.285Z,100807.25
2022-10-22T10:57:27.092Z,100807.13
2022-10-22T11:00:09.020Z,100809.03
2022-10-22T11:03:06.620Z,100816.09
2022-10-22T11:05:44.058Z,100807.94
2022-10-22T11:08:21.650Z,100803.31
2022-10-22T11:10:56.522Z,100802.66
2022-10-22T11:13:33.310Z,100802.50
2022-10-22T11:16:12.110Z,100803.41
2022-10-22T11:18:47.462Z,100800.75
2022-10-22T11:21:26.841Z,100804.28
2022-10-22T11:24:03.672Z,100800.78
2022-10-22T11:26:44.980Z,100803.47
2022-10-22T11:29:20.422Z,100794.50
2022-10-22T11:31:54.853Z,100795.22
2022-10-22T11:34:33.737Z,100793.34
2022-10-22T11:37:06.862Z,100806.53
2022-10-22T11:39:42.682Z,100805.66
2022-10-22T11:42:20.975Z,100803.88
2022-10-22T11:45:03.074Z,100807.44
2022-10-22T11:47:53.908Z,100809.19
2022-10-22T11:50:26.924Z,100810.00
2022-10-22T11:53:06.714Z,100817.09
2022-10-22T11:55:49.590Z,100805.56
2022-10-22T11:58:33.190Z,100808.19
2022-10-22T12:04:24.233Z,100808.06
2022-10-22T12:07:01.675Z,100808.94
2022-10-22T12:09:34.683Z,100808.94
2022-10-22T12:12:12.954Z,100805.25
2022-10-22T12:14:56.262Z,100809.63
2022-10-22T12:17:29.727Z,100812.19
2022-10-22T12:20:09.171Z,100811.38
2022-10-22T12:22:41.073Z,100802.47
2022-10-22T12:25:21.811Z,100803.31
2022-10-22T12:27:55.253Z,100813.00
2022-10-22T12:30:28.194Z,100798.78
2022-10-22T12:33:01.742Z,100805.88
2022-10-22T12:35:36.090Z,100804.09
2022-10-22T12:38:14.910Z,100801.38
2022-10-22T12:40:48.386Z,100799.47
2022-10-22T12:43:21.054Z,100801.22
2022-10-22T12:45:52.443Z,100801.09
2022-10-22T12:48:25.972Z,100751.00
2022-10-22T12:51:00.392Z,100801.00
2022-10-22T12:53:36.530Z,100795.66
2022-10-22T12:56:10.042Z,100792.03
2022-10-22T12:58:43.212Z,100793.78
2022-10-22T13:01:15.226Z,100797.19
2022-10-22T13:03:50.094Z,100794.63
2022-10-22T13:06:29.994Z,100799.91
2022-10-22T13:09:15.550Z,100797.31
2022-10-22T13:11:58.412Z,100798.16
2022-10-22T13:14:34.521Z,100807.00
2022-10-22T13:17:11.563Z,100806.09
2022-10-22T13:19:50.822Z,100805.19
2022-10-22T13:22:31.985Z,100801.66
2022-10-22T13:25:20.734Z,100802.53
2022-10-22T13:27:53.012Z,100802.44
2022-10-22T13:30:26.763Z,100804.13
2022-10-22T13:32:59.072Z,100796.09
2022-10-22T13:35:32.402Z,100798.69
2022-10-22T13:38:06.062Z,100801.28
2022-10-22T13:40:36.264Z,100800.31
2022-10-22T13:43:06.599Z,100795.81
2022-10-22T13:45:36.770Z,100801.13
2022-10-22T13:48:07.612Z,100792.22
2022-10-22T13:50:37.732Z,100794.06
2022-10-22T13:53:18.913Z,100800.25
2022-10-22T13:55:50.592Z,100793.09
2022-10-22T13:58:24.893Z,100794.88
2022-10-22T14:00:57.773Z,100792.22
2022-10-22T14:03:31.135Z,100790.38
2022-10-22T14:06:01.683Z,100792.34
2022-10-22T14:08:33.602Z,100793.31
2022-10-22T14:11:03.645Z,100785.38
2022-10-22T14:13:34.044Z,100795.94
2022-10-22T14:16:06.042Z,100796.84
2022-10-22T14:18:37.444Z,100794.19
2022-10-22T14:21:08.903Z,100788.88
2022-10-22T14:23:43.502Z,100799.56
2022-10-22T14:26:23.664Z,100799.56
2022-10-22T14:29:10.603Z,100802.28
2022-10-22T14:31:43.218Z,100796.94
2022-10-22T14:34:16.264Z,100803.19
2022-10-22T14:36:46.294Z,100801.47
2022-10-22T14:39:18.882Z,100809.38
2022-10-22T14:41:49.744Z,100801.34
2022-10-22T14:44:20.000Z,100810.25
2022-10-22T14:46:50.013Z,100808.47
2022-10-22T14:49:20.284Z,100811.13
2022-10-22T14:51:50.283Z,100810.31
2022-10-22T14:54:22.073Z,100806.81
2022-10-22T14:56:52.285Z,100812.97
2022-10-22T14:59:22.672Z,100820.03
2022-10-22T15:01:52.751Z,100812.94
2022-10-22T15:04:23.543Z,100823.53
2022-10-22T15:06:56.581Z,100820.91
2022-10-22T15:09:28.934Z,100828.00
2022-10-22T15:12:00.784Z,100821.78
2022-10-22T15:14:31.315Z,100822.53
2022-10-22T15:17:02.053Z,100823.56
2022-10-22T15:19:32.563Z,100821.72
2022-10-22T15:22:03.066Z,100828.78
2022-10-22T15:24:35.272Z,100824.41
2022-10-22T15:27:05.352Z,100832.44
2022-10-22T15:29:35.752Z,100830.66
2022-10-22T15:32:06.046Z,100836.00
2022-10-22T15:34:37.891Z,100836.00
2022-10-22T15:37:10.262Z,100832.31
2022-10-22T15:39:43.606Z,100835.06
2022-10-22T15:42:14.794Z,100827.13
2022-10-22T15:44:45.342Z,100835.00
2022-10-22T15:47:15.359Z,100838.53
2022-10-22T15:49:46.372Z,100834.06
2022-10-22T15:52:16.433Z,100836.78
2022-10-22T15:54:48.186Z,100836.78
2022-10-22T15:57:18.187Z,100840.34
2022-10-22T15:59:50.389Z,100845.69
2022-10-22T16:02:20.403Z,100849.25
2022-10-22T16:04:50.600Z,100854.56
2022-10-22T16:07:23.862Z,100850.88
2022-10-22T16:10:00.445Z,100855.25
2022-10-22T16:12:30.383Z,100863.31
2022-10-22T16:15:00.872Z,100861.56
2022-10-22T16:17:30.844Z,100868.75
2022-10-22T16:20:01.344Z,100865.00
2022-10-22T16:22:31.443Z,100870.34
2022-10-22T16:25:03.175Z,100877.50
2022-10-22T16:27:32.772Z,100880.16
2022-10-22T16:30:03.039Z,100887.31
2022-10-22T16:32:33.010Z,100881.06
2022-10-22T16:35:03.265Z,100881.94
2022-10-22T16:37:33.383Z,100883.69
2022-10-22T16:40:08.156Z,100887.25
2022-10-22T16:42:38.413Z,100888.13
2022-10-22T16:45:09.896Z,100888.06
2022-10-22T16:47:40.634Z,100891.56
2022-10-22T16:50:11.794Z,100892.44
2022-10-22T16:52:41.883Z,100894.22
2022-10-22T16:55:13.831Z,100893.28
2022-10-22T16:57:44.425Z,100896.81
2022-10-22T17:00:15.904Z,100896.72
2022-10-22T17:02:45.862Z,100901.28
2022-10-22T17:05:16.324Z,100907.53
2022-10-22T17:07:46.337Z,100904.84
2022-10-22T17:10:19.917Z,100907.59
2022-10-22T17:12:50.214Z,100902.22
2022-10-22T17:15:20.582Z,100903.09
2022-10-22T17:17:54.033Z,100909.47
2022-10-22T17:20:24.453Z,100905.06
2022-10-22T17:22:54.572Z,100902.34
2022-10-22T17:25:37.925Z,100904.09
2022-10-22T17:28:07.927Z,100905.00
2022-10-22T17:30:40.935Z,100907.69
2022-10-22T17:33:11.273Z,100912.19
2022-10-22T17:35:43.202Z,100907.69
2022-10-22T17:38:14.594Z,100905.06
2022-10-22T17:40:46.343Z,100905.06
2022-10-22T17:43:16.491Z,100909.47
2022-10-22T17:45:47.634Z,100905.88
2022-10-22T17:48:19.521Z,100912.03
2022-10-22T17:50:50.719Z,100914.69
2022-10-22T17:53:22.634Z,100913.75
2022-10-22T17:56:02.336Z,100921.75
2022-10-22T17:58:32.992Z,100908.34
2022-10-22T18:01:03.970Z,100917.31
2022-10-22T18:03:34.594Z,100908.34
2022-10-22T18:06:10.315Z,100910.06
2022-10-22T18:08:40.512Z,100913.56
2022-10-22T18:11:14.721Z,100911.78
2022-10-22T18:13:45.265Z,100908.19
2022-10-22T18:16:15.763Z,100914.34
2022-10-22T18:18:48.562Z,100911.69
2022-10-22T18:21:19.304Z,100918.91
2022-10-22T18:23:50.763Z,100917.97
2022-10-22T18:26:25.989Z,100920.59
2022-10-22T18:28:58.220Z,100916.09
2022-10-22T18:31:31.008Z,100910.78
2022-10-22T18:34:01.223Z,100916.19
2022-10-22T18:36:31.753Z,100916.03
2022-10-22T18:39:03.819Z,100919.59
2022-10-22T18:41:36.152Z,100911.59
2022-10-22T18:44:07.312Z,100918.56
2022-10-22T18:46:39.333Z,100915.03
2022-10-22T18:49:09.825Z,100913.34
2022-10-22T18:51:42.546Z,100923.94
2022-10-22T18:54:24.449Z,100922.16
2022-10-22T18:57:06.812Z,100919.47
2022-10-22T19:00:08.552Z,100929.25
2022-10-22T19:02:56.034Z,100927.59
2022-10-22T19:05:37.219Z,100940.75
2022-10-22T19:08:59.905Z,100939.00
2022-10-22T19:11:39.516Z,100951.31
2022-10-22T19:14:25.313Z,100959.38
2022-10-22T19:20:47.645Z,100956.63
2022-10-22T19:23:27.795Z,100960.06
2022-10-22T19:26:20.345Z,100972.59
2022-10-22T19:29:02.522Z,100974.34
2022-10-22T19:31:45.907Z,100979.75
2022-10-22T19:34:46.573Z,100979.75
2022-10-22T19:40:47.168Z,100986.00
2022-10-22T19:43:47.796Z,100991.41
2022-10-22T19:46:57.694Z,100993.13
2022-10-22T19:50:06.524Z,101004.63
2022-10-22T19:52:48.514Z,100995.78
2022-10-22T19:55:32.505Z,100995.78
2022-10-22T19:58:20.904Z,101003.75
2022-10-22T20:01:18.820Z,101009.13
2022-10-22T20:04:38.573Z,101010.03
2022-10-22T20:07:29.654Z,101019.00
2022-10-22T20:13:27.233Z,101020.66
2022-10-22T20:16:14.682Z,101028.78
2022-10-22T20:18:57.322Z,101024.31
2022-10-22T20:21:49.439Z,101027.84
2022-10-22T20:24:50.704Z,101032.28
2022-10-22T20:27:48.992Z,101042.00
2022-10-22T20:30:21.710Z,101043.00
2022-10-22T20:32:52.024Z,101053.63
2022-10-22T20:35:22.225Z,101050.13
2022-10-22T20:37:52.534Z,101050.13
2022-10-22T20:40:27.880Z,101054.66
2022-10-22T20:42:59.362Z,101051.97
2022-10-22T20:45:30.849Z,101048.47
2022-10-22T20:48:03.069Z,101048.38
2022-10-22T20:50:33.648Z,101047.59
2022-10-22T20:53:04.964Z,101054.78
2022-10-22T20:55:38.553Z,101045.81
2022-10-22T20:58:10.023Z,101048.50
2022-10-22T21:00:41.422Z,101044.94
2022-10-22T21:03:14.401Z,101048.44
2022-10-22T21:05:45.123Z,101059.19
2022-10-22T21:08:17.822Z,101050.38
2022-10-22T21:10:49.786Z,101051.31
2022-10-22T21:13:19.923Z,101053.97
2022-10-22T21:15:50.115Z,101057.47
2022-10-22T21:18:20.271Z,101057.44
2022-10-22T21:20:51.062Z,101056.41
2022-10-22T21:23:23.232Z,101064.47
2022-10-22T21:26:01.827Z,101058.19
2022-10-22T21:28:46.904Z,101063.56
2022-10-22T21:31:35.447Z,101058.13
2022-10-22T21:34:41.793Z,101061.66
2022-10-22T21:37:21.222Z,101064.34
2022-10-22T21:40:19.455Z,101069.47
2022-10-22T21:43:15.854Z,101062.97
2022-10-22T21:45:52.912Z,101070.22
2022-10-22T21:48:22.962Z,101071.09
2022-10-22T21:50:54.133Z,101083.69
2022-10-22T21:53:25.070Z,101075.78
2022-10-22T21:55:55.261Z,101077.66
2022-10-22T21:58:26.672Z,101081.13
2022-10-22T22:00:58.648Z,101075.88
2022-10-22T22:03:29.214Z,101074.84
2022-10-22T22:06:00.673Z,101073.19
2022-10-22T22:08:31.632Z,101062.41
2022-10-22T22:11:06.033Z,101075.00
2022-10-22T22:13:38.032Z,101059.81
2022-10-22T22:16:11.322Z,101072.41
2022-10-22T22:18:42.182Z,101073.25
2022-10-22T22:21:14.896Z,101071.56
2022-10-22T22:23:46.433Z,101078.78
2022-10-22T22:26:19.341Z,101077.91
2022-10-22T22:28:50.735Z,101083.22
2022-10-22T22:31:24.353Z,101084.88
2022-10-22T22:33:59.332Z,101090.28
2022-10-22T22:36:30.090Z,101084.13
2022-10-22T22:39:00.222Z,101089.38
2022-10-22T22:41:30.633Z,101092.13
2022-10-22T22:44:02.372Z,101096.53
2022-10-22T22:46:33.341Z,101090.31
2022-10-22T22:49:03.901Z,101087.69
2022-10-22T22:51:34.381Z,101089.56
2022-10-22T22:54:04.875Z,101089.59
2022-10-22T22:56:35.992Z,101090.38
2022-10-22T22:59:07.793Z,101100.19
2022-10-22T23:01:39.945Z,101097.59
2022-10-22T23:04:13.995Z,101097.63
2022-10-22T23:06:44.761Z,101093.13
2022-10-22T23:09:16.883Z,101093.97
2022-10-22T23:11:48.208Z,101096.69
2022-10-22T23:14:21.333Z,101098.47
2022-10-22T23:16:52.996Z,101101.13
2022-10-22T23:19:24.450Z,101102.03
2022-10-22T23:21:56.711Z,101102.84
2022-10-22T23:24:29.452Z,101106.41
2022-10-22T23:27:04.124Z,101103.75
2022-10-22T23:29:37.310Z,101110.81
2022-10-22T23:32:09.940Z,101108.19
2022-10-22T23:34:40.551Z,101112.53
2022-10-22T23:37:13.530Z,101103.69
2022-10-22T23:39:43.630Z,101111.53
2022-10-22T23:42:13.810Z,101113.41
2022-10-22T23:44:45.251Z,101110.78
2022-10-22T23:47:15.401Z,101109.03
2022-10-22T23:49:45.361Z,101115.25
2022-10-22T23:52:15.613Z,101117.09
2022-10-22T23:54:45.811Z,101122.41
2022-10-22T23:57:16.090Z,101114.53
2022-10-22T23:59:47.461Z,101119.09
